sensor_id;sensor_type;location;lat;lon;timestamp;temperature;humidity
15111;DHT22;7656;51.954;7.998;2023-02-07T00:00:19;0.30;99.90
15111;DHT22;7656;51.954;7.998;2023-02-07T00:04:40;0.50;99.90
15111;DHT22;7656;51.954;7.998;2023-02-07T00:09:04;0.40;99.90
15111;DHT22;7656;51.954;7.998;2023-02-07T00:13:27;0.30;99.90
15111;DHT22;7656;51.954;7.998;2023-02-07T00:17:48;0.50;99.90
15111;DHT22;7656;51.954;7.998;2023-02-07T00:22:09;0.00;99.90
15111;DHT22;7656;51.954;7.998;2023-02-07T00:26:30;-0.20;99.90
15111;DHT22;7656;51.954;7.998;2023-02-07T00:31:02;0.00;99.90
15111;DHT22;7656;51.954;7.998;2023-02-07T00:35:24;-0.10;99.90
15111;DHT22;7656;51.954;7.998;2023-02-07T00:39:45;-0.20;99.90
15111;DHT22;7656;51.954;7.998;2023-02-07T00:44:07;0.00;99.90
15111;DHT22;7656;51.954;7.998;2023-02-07T00:48:29;-0.40;99.90
15111;DHT22;7656;51.954;7.998;2023-02-07T00:52:51;0.00;99.90
15111;DHT22;7656;51.954;7.998;2023-02-07T00:57:12;0.10;99.90
15111;DHT22;7656;51.954;7.998;2023-02-07T01:01:33;0.10;99.90
15111;DHT22;7656;51.954;7.998;2023-02-07T01:05:55;0.10;99.90
15111;DHT22;7656;51.954;7.998;2023-02-07T01:10:17;-0.10;99.90
15111;DHT22;7656;51.954;7.998;2023-02-07T01:14:38;0.00;99.90
15111;DHT22;7656;51.954;7.998;2023-02-07T01:19:07;-0.20;99.90
15111;DHT22;7656;51.954;7.998;2023-02-07T01:23:29;-0.10;99.90
15111;DHT22;7656;51.954;7.998;2023-02-07T01:27:50;0.00;99.90
15111;DHT22;7656;51.954;7.998;2023-02-07T01:32:11;0.10;99.90
15111;DHT22;7656;51.954;7.998;2023-02-07T01:36:32;0.10;99.90
15111;DHT22;7656;51.954;7.998;2023-02-07T01:40:53;0.10;99.90
15111;DHT22;7656;51.954;7.998;2023-02-07T01:45:41;0.30;99.90
15111;DHT22;7656;51.954;7.998;2023-02-07T01:50:02;0.30;99.90
15111;DHT22;7656;51.954;7.998;2023-02-07T01:54:24;0.30;99.90
15111;DHT22;7656;51.954;7.998;2023-02-07T01:58:52;0.30;99.90
15111;DHT22;7656;51.954;7.998;2023-02-07T02:03:13;0.20;99.90
15111;DHT22;7656;51.954;7.998;2023-02-07T02:07:34;0.10;99.90
15111;DHT22;7656;51.954;7.998;2023-02-07T02:16:52;0.00;99.90
15111;DHT22;7656;51.954;7.998;2023-02-07T02:50:50;-0.40;99.90
15111;DHT22;7656;51.954;7.998;2023-02-07T02:55:13;-0.30;99.90
15111;DHT22;7656;51.954;7.998;2023-02-07T03:04:27;-0.30;99.90
15111;DHT22;7656;51.954;7.998;2023-02-07T03:09:05;-0.40;99.90
15111;DHT22;7656;51.954;7.998;2023-02-07T03:23:01;-0.50;99.90
15111;DHT22;7656;51.954;7.998;2023-02-07T03:27:27;-0.60;99.90
15111;DHT22;7656;51.954;7.998;2023-02-07T03:31:54;-0.60;99.90
15111;DHT22;7656;51.954;7.998;2023-02-07T03:36:26;-0.60;99.90
15111;DHT22;7656;51.954;7.998;2023-02-07T03:40:53;-0.50;99.90
15111;DHT22;7656;51.954;7.998;2023-02-07T03:45:19;-0.60;99.90
15111;DHT22;7656;51.954;7.998;2023-02-07T03:49:40;-0.60;99.90
15111;DHT22;7656;51.954;7.998;2023-02-07T03:54:02;-0.60;99.90
15111;DHT22;7656;51.954;7.998;2023-02-07T03:58:23;-0.60;99.90
15111;DHT22;7656;51.954;7.998;2023-02-07T04:02:44;-0.70;99.90
15111;DHT22;7656;51.954;7.998;2023-02-07T04:07:05;-0.80;99.90
15111;DHT22;7656;51.954;7.998;2023-02-07T04:11:27;-1.30;99.90
15111;DHT22;7656;51.954;7.998;2023-02-07T04:15:48;-1.40;99.90
15111;DHT22;7656;51.954;7.998;2023-02-07T04:20:09;-1.30;99.90
15111;DHT22;7656;51.954;7.998;2023-02-07T04:24:31;-1.10;99.90
15111;DHT22;7656;51.954;7.998;2023-02-07T04:28:52;-0.90;99.90
15111;DHT22;7656;51.954;7.998;2023-02-07T04:33:13;-0.80;99.90
15111;DHT22;7656;51.954;7.998;2023-02-07T04:37:34;-0.80;99.90
15111;DHT22;7656;51.954;7.998;2023-02-07T04:41:55;-0.70;99.90
15111;DHT22;7656;51.954;7.998;2023-02-07T04:46:16;-0.70;99.90
15111;DHT22;7656;51.954;7.998;2023-02-07T04:50:37;-1.00;99.90
15111;DHT22;7656;51.954;7.998;2023-02-07T04:54:58;-1.40;99.90
15111;DHT22;7656;51.954;7.998;2023-02-07T04:59:19;-1.60;99.90
15111;DHT22;7656;51.954;7.998;2023-02-07T05:03:40;-1.60;99.90
15111;DHT22;7656;51.954;7.998;2023-02-07T05:08:01;-1.50;99.90
15111;DHT22;7656;51.954;7.998;2023-02-07T05:12:23;-1.20;99.90
15111;DHT22;7656;51.954;7.998;2023-02-07T05:16:44;-1.10;99.90
15111;DHT22;7656;51.954;7.998;2023-02-07T05:21:05;-1.10;99.90
15111;DHT22;7656;51.954;7.998;2023-02-07T05:25:26;-1.30;99.90
15111;DHT22;7656;51.954;7.998;2023-02-07T05:29:47;-1.40;99.90
15111;DHT22;7656;51.954;7.998;2023-02-07T05:34:10;-1.50;99.90
15111;DHT22;7656;51.954;7.998;2023-02-07T05:38:31;-1.40;99.90
15111;DHT22;7656;51.954;7.998;2023-02-07T05:42:53;-1.30;99.90
15111;DHT22;7656;51.954;7.998;2023-02-07T05:47:14;-1.20;99.90
15111;DHT22;7656;51.954;7.998;2023-02-07T05:51:35;-1.10;99.90
15111;DHT22;7656;51.954;7.998;2023-02-07T05:55:56;-1.10;99.90
15111;DHT22;7656;51.954;7.998;2023-02-07T06:00:18;-1.10;99.90
15111;DHT22;7656;51.954;7.998;2023-02-07T06:04:40;-1.10;99.90
15111;DHT22;7656;51.954;7.998;2023-02-07T06:09:01;-1.10;99.90
15111;DHT22;7656;51.954;7.998;2023-02-07T06:13:22;-1.40;99.90
15111;DHT22;7656;51.954;7.998;2023-02-07T06:17:43;-1.30;99.90
15111;DHT22;7656;51.954;7.998;2023-02-07T06:22:04;-1.20;99.90
15111;DHT22;7656;51.954;7.998;2023-02-07T06:26:25;-1.10;99.90
15111;DHT22;7656;51.954;7.998;2023-02-07T06:30:46;-1.30;99.90
15111;DHT22;7656;51.954;7.998;2023-02-07T06:35:07;-1.70;99.90
15111;DHT22;7656;51.954;7.998;2023-02-07T06:39:28;-2.00;99.90
15111;DHT22;7656;51.954;7.998;2023-02-07T06:43:49;-1.80;99.90
15111;DHT22;7656;51.954;7.998;2023-02-07T06:48:11;-1.70;99.90
15111;DHT22;7656;51.954;7.998;2023-02-07T06:52:32;-2.00;99.90
15111;DHT22;7656;51.954;7.998;2023-02-07T06:56:53;-2.20;99.90
15111;DHT22;7656;51.954;7.998;2023-02-07T07:01:14;-2.00;99.90
15111;DHT22;7656;51.954;7.998;2023-02-07T07:05:40;-1.70;99.90
15111;DHT22;7656;51.954;7.998;2023-02-07T07:10:01;-1.50;99.90
15111;DHT22;7656;51.954;7.998;2023-02-07T07:14:23;-1.40;99.90
15111;DHT22;7656;51.954;7.998;2023-02-07T07:18:44;-1.40;99.90
15111;DHT22;7656;51.954;7.998;2023-02-07T07:23:05;-1.60;99.90
15111;DHT22;7656;51.954;7.998;2023-02-07T07:27:26;-1.30;99.90
15111;DHT22;7656;51.954;7.998;2023-02-07T07:31:47;-0.80;99.90
15111;DHT22;7656;51.954;7.998;2023-02-07T07:36:08;-1.10;99.90
15111;DHT22;7656;51.954;7.998;2023-02-07T07:40:29;-1.00;99.90
15111;DHT22;7656;51.954;7.998;2023-02-07T07:44:51;-0.30;99.90
15111;DHT22;7656;51.954;7.998;2023-02-07T07:49:12;0.80;99.90
15111;DHT22;7656;51.954;7.998;2023-02-07T07:53:33;1.50;99.90
15111;DHT22;7656;51.954;7.998;2023-02-07T07:57:54;2.40;99.90
15111;DHT22;7656;51.954;7.998;2023-02-07T08:02:15;2.20;99.90
15111;DHT22;7656;51.954;7.998;2023-02-07T08:06:36;2.20;99.90
15111;DHT22;7656;51.954;7.998;2023-02-07T08:11:07;3.20;99.90
15111;DHT22;7656;51.954;7.998;2023-02-07T08:15:28;3.60;99.90
15111;DHT22;7656;51.954;7.998;2023-02-07T08:19:50;3.60;99.90
15111;DHT22;7656;51.954;7.998;2023-02-07T08:24:11;4.40;99.90
15111;DHT22;7656;51.954;7.998;2023-02-07T08:28:33;5.50;99.90
15111;DHT22;7656;51.954;7.998;2023-02-07T08:32:54;6.50;99.90
15111;DHT22;7656;51.954;7.998;2023-02-07T08:37:15;7.70;99.90
15111;DHT22;7656;51.954;7.998;2023-02-07T08:41:36;8.70;99.90
15111;DHT22;7656;51.954;7.998;2023-02-07T08:45:57;9.30;99.90
15111;DHT22;7656;51.954;7.998;2023-02-07T08:50:20;11.10;99.90
15111;DHT22;7656;51.954;7.998;2023-02-07T08:54:41;11.70;99.90
15111;DHT22;7656;51.954;7.998;2023-02-07T08:59:02;10.00;99.90
15111;DHT22;7656;51.954;7.998;2023-02-07T09:03:23;11.10;99.90
15111;DHT22;7656;51.954;7.998;2023-02-07T09:07:44;11.60;99.90
15111;DHT22;7656;51.954;7.998;2023-02-07T09:12:06;11.20;99.90
15111;DHT22;7656;51.954;7.998;2023-02-07T09:16:27;13.00;99.90
15111;DHT22;7656;51.954;7.998;2023-02-07T09:20:48;12.20;99.90
15111;DHT22;7656;51.954;7.998;2023-02-07T09:25:09;11.30;99.90
15111;DHT22;7656;51.954;7.998;2023-02-07T09:29:30;11.80;99.90
15111;DHT22;7656;51.954;7.998;2023-02-07T09:33:52;13.30;99.90
15111;DHT22;7656;51.954;7.998;2023-02-07T09:38:15;14.30;99.90
15111;DHT22;7656;51.954;7.998;2023-02-07T09:47:15;16.00;99.90
15111;DHT22;7656;51.954;7.998;2023-02-07T10:00:28;19.10;92.70
15111;DHT22;7656;51.954;7.998;2023-02-07T10:04:54;19.00;93.00
15111;DHT22;7656;51.954;7.998;2023-02-07T10:09:31;18.80;92.20
15111;DHT22;7656;51.954;7.998;2023-02-07T10:14:10;16.40;94.60
15111;DHT22;7656;51.954;7.998;2023-02-07T10:33:24;12.30;99.90
15111;DHT22;7656;51.954;7.998;2023-02-07T10:37:52;12.40;99.90
15111;DHT22;7656;51.954;7.998;2023-02-07T10:42:15;12.00;99.90
15111;DHT22;7656;51.954;7.998;2023-02-07T10:46:37;12.30;99.90
15111;DHT22;7656;51.954;7.998;2023-02-07T10:51:03;11.90;99.90
15111;DHT22;7656;51.954;7.998;2023-02-07T10:55:41;10.30;99.90
15111;DHT22;7656;51.954;7.998;2023-02-07T11:00:20;9.80;99.90
15111;DHT22;7656;51.954;7.998;2023-02-07T11:04:44;12.40;99.90
15111;DHT22;7656;51.954;7.998;2023-02-07T11:09:22;10.50;99.90
15111;DHT22;7656;51.954;7.998;2023-02-07T11:13:47;11.50;99.90
15111;DHT22;7656;51.954;7.998;2023-02-07T11:18:40;13.00;99.90
15111;DHT22;7656;51.954;7.998;2023-02-07T11:23:10;13.60;99.90
15111;DHT22;7656;51.954;7.998;2023-02-07T11:27:39;11.70;99.90
15111;DHT22;7656;51.954;7.998;2023-02-07T11:32:01;12.60;99.90
15111;DHT22;7656;51.954;7.998;2023-02-07T11:36:29;12.70;99.90
15111;DHT22;7656;51.954;7.998;2023-02-07T11:40:51;12.70;99.90
15111;DHT22;7656;51.954;7.998;2023-02-07T11:45:21;13.80;99.90
15111;DHT22;7656;51.954;7.998;2023-02-07T11:49:46;13.40;99.90
15111;DHT22;7656;51.954;7.998;2023-02-07T11:54:11;14.20;99.90
15111;DHT22;7656;51.954;7.998;2023-02-07T11:58:36;12.50;99.90
15111;DHT22;7656;51.954;7.998;2023-02-07T12:03:07;11.60;99.90
15111;DHT22;7656;51.954;7.998;2023-02-07T12:07:52;11.30;99.90
15111;DHT22;7656;51.954;7.998;2023-02-07T12:12:27;12.00;99.90
15111;DHT22;7656;51.954;7.998;2023-02-07T12:16:55;10.80;99.90
15111;DHT22;7656;51.954;7.998;2023-02-07T12:21:37;9.70;99.90
15111;DHT22;7656;51.954;7.998;2023-02-07T12:26:25;10.00;99.90
15111;DHT22;7656;51.954;7.998;2023-02-07T12:30:50;9.70;99.90
15111;DHT22;7656;51.954;7.998;2023-02-07T12:40:02;9.50;99.90
15111;DHT22;7656;51.954;7.998;2023-02-07T12:44:34;9.70;99.90
15111;DHT22;7656;51.954;7.998;2023-02-07T12:49:39;11.00;99.90
15111;DHT22;7656;51.954;7.998;2023-02-07T13:08:44;13.60;99.90
15111;DHT22;7656;51.954;7.998;2023-02-07T13:23:16;15.40;99.90
15111;DHT22;7656;51.954;7.998;2023-02-07T13:27:39;14.50;99.90
15111;DHT22;7656;51.954;7.998;2023-02-07T13:32:04;13.70;99.40
15111;DHT22;7656;51.954;7.998;2023-02-07T13:36:41;13.60;99.90
15111;DHT22;7656;51.954;7.998;2023-02-07T13:41:22;13.10;98.40
15111;DHT22;7656;51.954;7.998;2023-02-07T13:46:05;12.30;99.90
15111;DHT22;7656;51.954;7.998;2023-02-07T13:51:08;13.50;99.00
15111;DHT22;7656;51.954;7.998;2023-02-07T13:55:39;12.70;99.30
15111;DHT22;7656;51.954;7.998;2023-02-07T14:09:23;13.70;98.70
15111;DHT22;7656;51.954;7.998;2023-02-07T14:13:49;14.40;98.10
15111;DHT22;7656;51.954;7.998;2023-02-07T14:36:35;12.90;96.60
15111;DHT22;7656;51.954;7.998;2023-02-07T14:41:02;10.90;97.40
15111;DHT22;7656;51.954;7.998;2023-02-07T14:45:32;10.00;99.00
15111;DHT22;7656;51.954;7.998;2023-02-07T14:49:57;9.50;99.30
15111;DHT22;7656;51.954;7.998;2023-02-07T14:55:03;8.70;99.90
15111;DHT22;7656;51.954;7.998;2023-02-07T14:59:27;8.90;99.90
15111;DHT22;7656;51.954;7.998;2023-02-07T15:04:01;9.30;99.90
15111;DHT22;7656;51.954;7.998;2023-02-07T15:08:28;8.20;99.90
15111;DHT22;7656;51.954;7.998;2023-02-07T15:12:54;7.70;99.90
15111;DHT22;7656;51.954;7.998;2023-02-07T15:17:21;7.20;99.90
15111;DHT22;7656;51.954;7.998;2023-02-07T15:21:44;6.90;99.90
15111;DHT22;7656;51.954;7.998;2023-02-07T15:26:09;7.10;99.90
15111;DHT22;7656;51.954;7.998;2023-02-07T15:30:32;7.30;99.90
15111;DHT22;7656;51.954;7.998;2023-02-07T15:34:53;7.80;99.90
15111;DHT22;7656;51.954;7.998;2023-02-07T15:43:57;7.10;99.90
15111;DHT22;7656;51.954;7.998;2023-02-07T15:48:20;7.30;99.90
15111;DHT22;7656;51.954;7.998;2023-02-07T15:52:48;7.40;99.90
15111;DHT22;7656;51.954;7.998;2023-02-07T16:01:50;6.90;99.90
15111;DHT22;7656;51.954;7.998;2023-02-07T16:06:19;6.90;99.90
15111;DHT22;7656;51.954;7.998;2023-02-07T16:10:41;6.10;99.90
15111;DHT22;7656;51.954;7.998;2023-02-07T16:19:46;6.20;99.90
15111;DHT22;7656;51.954;7.998;2023-02-07T16:24:15;5.90;99.90
15111;DHT22;7656;51.954;7.998;2023-02-07T16:28:39;5.50;99.90
15111;DHT22;7656;51.954;7.998;2023-02-07T16:33:09;5.70;99.90
15111;DHT22;7656;51.954;7.998;2023-02-07T16:37:32;5.60;99.90
15111;DHT22;7656;51.954;7.998;2023-02-07T16:42:02;5.50;99.90
15111;DHT22;7656;51.954;7.998;2023-02-07T16:46:25;4.90;99.90
15111;DHT22;7656;51.954;7.998;2023-02-07T16:50:46;4.80;99.90
15111;DHT22;7656;51.954;7.998;2023-02-07T16:55:07;4.70;99.90
15111;DHT22;7656;51.954;7.998;2023-02-07T16:59:28;4.80;99.90
15111;DHT22;7656;51.954;7.998;2023-02-07T17:03:50;4.70;99.90
15111;DHT22;7656;51.954;7.998;2023-02-07T17:08:19;4.60;99.90
15111;DHT22;7656;51.954;7.998;2023-02-07T17:12:49;4.60;99.90
15111;DHT22;7656;51.954;7.998;2023-02-07T17:17:11;4.40;99.90
15111;DHT22;7656;51.954;7.998;2023-02-07T17:21:32;4.40;99.90
15111;DHT22;7656;51.954;7.998;2023-02-07T17:25:55;4.10;99.90
15111;DHT22;7656;51.954;7.998;2023-02-07T17:30:18;3.90;99.90
15111;DHT22;7656;51.954;7.998;2023-02-07T17:34:41;3.80;99.90
15111;DHT22;7656;51.954;7.998;2023-02-07T17:39:02;3.80;99.90
15111;DHT22;7656;51.954;7.998;2023-02-07T17:43:23;3.70;99.90
15111;DHT22;7656;51.954;7.998;2023-02-07T17:47:45;3.20;99.90
15111;DHT22;7656;51.954;7.998;2023-02-07T17:52:06;3.20;99.90
15111;DHT22;7656;51.954;7.998;2023-02-07T17:56:30;3.10;99.90
15111;DHT22;7656;51.954;7.998;2023-02-07T18:00:52;2.70;99.90
15111;DHT22;7656;51.954;7.998;2023-02-07T18:05:14;1.90;99.90
15111;DHT22;7656;51.954;7.998;2023-02-07T18:09:35;2.00;99.90
15111;DHT22;7656;51.954;7.998;2023-02-07T18:13:56;1.50;99.90
15111;DHT22;7656;51.954;7.998;2023-02-07T18:18:17;1.40;99.90
15111;DHT22;7656;51.954;7.998;2023-02-07T18:22:38;1.90;99.90
15111;DHT22;7656;51.954;7.998;2023-02-07T18:26:59;2.10;99.90
15111;DHT22;7656;51.954;7.998;2023-02-07T18:31:23;2.10;99.90
15111;DHT22;7656;51.954;7.998;2023-02-07T18:35:45;2.10;99.90
15111;DHT22;7656;51.954;7.998;2023-02-07T18:40:10;1.70;99.90
15111;DHT22;7656;51.954;7.998;2023-02-07T18:44:32;1.60;99.90
15111;DHT22;7656;51.954;7.998;2023-02-07T18:48:54;1.40;99.90
15111;DHT22;7656;51.954;7.998;2023-02-07T18:53:16;1.50;99.90
15111;DHT22;7656;51.954;7.998;2023-02-07T18:57:37;1.60;99.90
15111;DHT22;7656;51.954;7.998;2023-02-07T19:01:58;1.70;99.90
15111;DHT22;7656;51.954;7.998;2023-02-07T19:06:21;1.70;99.90
15111;DHT22;7656;51.954;7.998;2023-02-07T19:10:57;1.70;99.90
15111;DHT22;7656;51.954;7.998;2023-02-07T19:15:21;1.60;99.90
15111;DHT22;7656;51.954;7.998;2023-02-07T19:19:42;1.60;99.90
15111;DHT22;7656;51.954;7.998;2023-02-07T19:24:06;1.10;99.90
15111;DHT22;7656;51.954;7.998;2023-02-07T19:28:29;1.10;99.90
15111;DHT22;7656;51.954;7.998;2023-02-07T19:32:51;1.20;99.90
15111;DHT22;7656;51.954;7.998;2023-02-07T19:37:13;1.20;99.90
15111;DHT22;7656;51.954;7.998;2023-02-07T19:41:34;1.20;99.90
15111;DHT22;7656;51.954;7.998;2023-02-07T19:45:55;1.30;99.90
15111;DHT22;7656;51.954;7.998;2023-02-07T19:50:16;1.20;99.90
15111;DHT22;7656;51.954;7.998;2023-02-07T19:54:38;0.40;99.90
15111;DHT22;7656;51.954;7.998;2023-02-07T19:59:01;0.50;99.90
15111;DHT22;7656;51.954;7.998;2023-02-07T20:03:23;0.10;99.90
15111;DHT22;7656;51.954;7.998;2023-02-07T20:07:45;0.30;99.90
15111;DHT22;7656;51.954;7.998;2023-02-07T20:12:06;0.50;99.90
15111;DHT22;7656;51.954;7.998;2023-02-07T20:16:29;0.70;99.90
15111;DHT22;7656;51.954;7.998;2023-02-07T20:20:55;0.70;99.90
15111;DHT22;7656;51.954;7.998;2023-02-07T20:25:16;0.80;99.90
15111;DHT22;7656;51.954;7.998;2023-02-07T20:29:37;0.90;99.90
15111;DHT22;7656;51.954;7.998;2023-02-07T20:33:58;0.60;99.90
15111;DHT22;7656;51.954;7.998;2023-02-07T20:38:21;0.50;99.90
15111;DHT22;7656;51.954;7.998;2023-02-07T20:42:43;0.60;99.90
15111;DHT22;7656;51.954;7.998;2023-02-07T20:47:04;0.50;99.90
15111;DHT22;7656;51.954;7.998;2023-02-07T20:51:26;0.50;99.90
15111;DHT22;7656;51.954;7.998;2023-02-07T20:55:48;0.50;99.90
15111;DHT22;7656;51.954;7.998;2023-02-07T21:00:09;0.50;99.90
15111;DHT22;7656;51.954;7.998;2023-02-07T21:04:31;0.50;99.90
15111;DHT22;7656;51.954;7.998;2023-02-07T21:08:56;0.50;99.90
15111;DHT22;7656;51.954;7.998;2023-02-07T21:13:20;0.00;99.90
15111;DHT22;7656;51.954;7.998;2023-02-07T21:17:41;-0.10;99.90
15111;DHT22;7656;51.954;7.998;2023-02-07T21:22:02;-0.10;99.90
15111;DHT22;7656;51.954;7.998;2023-02-07T21:26:24;-0.70;99.90
15111;DHT22;7656;51.954;7.998;2023-02-07T21:30:46;-0.80;99.90
15111;DHT22;7656;51.954;7.998;2023-02-07T21:35:07;-0.40;99.90
15111;DHT22;7656;51.954;7.998;2023-02-07T21:39:28;-0.10;99.90
15111;DHT22;7656;51.954;7.998;2023-02-07T21:43:50;0.10;99.90
15111;DHT22;7656;51.954;7.998;2023-02-07T21:48:13;0.10;99.90
15111;DHT22;7656;51.954;7.998;2023-02-07T21:52:34;0.00;99.90
15111;DHT22;7656;51.954;7.998;2023-02-07T21:56:55;0.10;99.90
15111;DHT22;7656;51.954;7.998;2023-02-07T22:01:18;0.10;99.90
15111;DHT22;7656;51.954;7.998;2023-02-07T22:05:40;0.10;99.90
15111;DHT22;7656;51.954;7.998;2023-02-07T22:10:01;0.10;99.90
15111;DHT22;7656;51.954;7.998;2023-02-07T22:14:22;0.00;99.90
15111;DHT22;7656;51.954;7.998;2023-02-07T22:18:47;-0.30;99.90
15111;DHT22;7656;51.954;7.998;2023-02-07T22:23:08;-0.10;99.90
15111;DHT22;7656;51.954;7.998;2023-02-07T22:27:29;-0.10;99.90
15111;DHT22;7656;51.954;7.998;2023-02-07T22:31:50;-0.10;99.90
15111;DHT22;7656;51.954;7.998;2023-02-07T22:36:19;-0.20;99.90
15111;DHT22;7656;51.954;7.998;2023-02-07T22:40:42;-0.10;99.90
15111;DHT22;7656;51.954;7.998;2023-02-07T22:45:03;-0.10;99.90
15111;DHT22;7656;51.954;7.998;2023-02-07T22:49:24;0.10;99.90
15111;DHT22;7656;51.954;7.998;2023-02-07T22:53:46;0.10;99.90
15111;DHT22;7656;51.954;7.998;2023-02-07T22:58:07;0.00;99.90
15111;DHT22;7656;51.954;7.998;2023-02-07T23:02:28;0.00;99.90
15111;DHT22;7656;51.954;7.998;2023-02-07T23:06:50;-0.20;99.90
15111;DHT22;7656;51.954;7.998;2023-02-07T23:11:13;-0.20;99.90
15111;DHT22;7656;51.954;7.998;2023-02-07T23:15:35;-0.30;99.90
15111;DHT22;7656;51.954;7.998;2023-02-07T23:19:56;-0.20;99.90
15111;DHT22;7656;51.954;7.998;2023-02-07T23:24:17;-0.20;99.90
15111;DHT22;7656;51.954;7.998;2023-02-07T23:28:38;-0.20;99.90
15111;DHT22;7656;51.954;7.998;2023-02-07T23:32:59;-0.30;99.90
15111;DHT22;7656;51.954;7.998;2023-02-07T23:37:20;-0.30;99.90
15111;DHT22;7656;51.954;7.998;2023-02-07T23:41:42;-0.50;99.90
15111;DHT22;7656;51.954;7.998;2023-02-07T23:46:04;-0.50;99.90
15111;DHT22;7656;51.954;7.998;2023-02-07T23:50:26;-0.50;99.90
15111;DHT22;7656;51.954;7.998;2023-02-07T23:54:48;-0.40;99.90
15111;DHT22;7656;51.954;7.998;2023-02-07T23:59:11;-0.40;99.90
